createdAt,value
2022-08-26T00:02:00.007Z,98647.75
2022-08-26T00:04:29.553Z,98647.41
2022-08-26T00:06:58.410Z,98642.25
2022-08-26T00:09:26.131Z,98645.41
2022-08-26T00:11:54.406Z,98638.31
2022-08-26T00:14:28.315Z,98638.34
2022-08-26T00:16:58.882Z,98647.13
2022-08-26T00:19:27.850Z,98649.56
2022-08-26T00:21:58.398Z,98661.56
2022-08-26T00:24:28.377Z,98656.75
2022-08-26T00:26:58.255Z,98642.75
2022-08-26T00:29:26.191Z,98655.16
2022-08-26T00:31:53.592Z,98660.41
2022-08-26T00:34:20.977Z,98659.66
2022-08-26T00:36:49.215Z,98646.53
2022-08-26T00:39:20.048Z,98637.81
2022-08-26T00:41:47.994Z,98653.81
2022-08-26T00:44:15.271Z,98654.72
2022-08-26T00:46:48.698Z,98652.75
2022-08-26T00:49:31.416Z,98653.19
2022-08-26T00:52:03.342Z,98638.09
2022-08-26T00:54:42.413Z,98648.44
2022-08-26T00:57:16.464Z,98637.34
2022-08-26T00:59:52.024Z,98660.13
2022-08-26T01:02:21.480Z,98653.69
2022-08-26T01:04:56.463Z,98646.88
2022-08-26T01:07:27.424Z,98651.25
2022-08-26T01:10:01.269Z,98654.91
2022-08-26T01:12:35.415Z,98654.94
2022-08-26T01:15:08.151Z,98658.53
2022-08-26T01:17:38.771Z,98659.91
2022-08-26T01:20:24.293Z,98665.53
2022-08-26T01:22:58.496Z,98654.75
2022-08-26T01:25:33.704Z,98658.38
2022-08-26T01:28:05.856Z,98654.41
2022-08-26T01:30:35.577Z,98658.38
2022-08-26T01:33:07.001Z,98647.22
2022-08-26T01:35:34.237Z,98645.66
2022-08-26T01:38:02.359Z,98650.47
2022-08-26T01:40:34.234Z,98653.66
2022-08-26T01:43:04.022Z,98653.66
2022-08-26T01:45:34.594Z,98649.75
2022-08-26T01:48:11.671Z,98652.56
2022-08-26T01:50:40.050Z,98637.38
2022-08-26T01:53:11.341Z,98660.16
2022-08-26T01:55:43.262Z,98649.31
2022-08-26T01:58:18.610Z,98656.09
2022-08-26T02:00:46.737Z,98648.84
2022-08-26T02:03:19.138Z,98659.28
2022-08-26T02:05:51.447Z,98654.91
2022-08-26T02:08:25.305Z,98644.88
2022-08-26T02:10:55.030Z,98646.44
2022-08-26T02:13:25.519Z,98640.81
2022-08-26T02:15:53.952Z,98640.41
2022-08-26T02:18:22.904Z,98639.59
2022-08-26T02:20:52.859Z,98648.03
2022-08-26T02:23:20.423Z,98625.19
2022-08-26T02:26:05.101Z,98643.63
2022-08-26T02:28:40.616Z,98635.72
2022-08-26T02:31:08.338Z,98642.13
2022-08-26T02:33:37.362Z,98628.56
2022-08-26T02:36:10.694Z,98635.34
2022-08-26T02:38:40.696Z,98628.22
2022-08-26T02:41:11.348Z,98632.63
2022-08-26T02:43:38.460Z,98644.22
2022-08-26T02:46:06.095Z,98643.03
2022-08-26T02:48:33.499Z,98647.44
2022-08-26T02:51:01.853Z,98647.03
2022-08-26T02:53:31.798Z,98654.69
2022-08-26T02:55:59.903Z,98646.69
2022-08-26T02:58:27.398Z,98655.09
2022-08-26T03:00:54.731Z,98646.34
2022-08-26T03:03:23.655Z,98647.13
2022-08-26T03:05:51.762Z,98647.97
2022-08-26T03:08:19.539Z,98650.81
2022-08-26T03:10:48.031Z,98649.63
2022-08-26T03:13:17.374Z,98659.28
2022-08-26T03:15:44.707Z,98666.50
2022-08-26T03:18:15.095Z,98658.91
2022-08-26T03:20:42.269Z,98662.91
2022-08-26T03:23:11.263Z,98654.88
2022-08-26T03:25:40.042Z,98655.72
2022-08-26T03:28:07.691Z,98656.91
2022-08-26T03:30:45.813Z,98649.31
2022-08-26T03:33:14.430Z,98662.09
2022-08-26T03:35:44.041Z,98650.13
2022-08-26T03:38:11.860Z,98669.31
2022-08-26T03:40:39.959Z,98667.72
2022-08-26T03:43:09.608Z,98676.50
2022-08-26T03:45:37.922Z,98671.72
2022-08-26T03:48:05.780Z,98664.50
2022-08-26T03:50:34.208Z,98662.09
2022-08-26T03:53:04.041Z,98668.50
2022-08-26T03:55:33.201Z,98664.09
2022-08-26T03:58:02.181Z,98664.88
2022-08-26T04:00:30.387Z,98674.88
2022-08-26T04:02:57.983Z,98683.66
2022-08-26T04:05:25.543Z,98667.28
2022-08-26T04:07:53.226Z,98672.09
2022-08-26T04:10:28.435Z,98686.84
2022-08-26T04:13:07.944Z,98679.63
2022-08-26T04:15:35.901Z,98656.84
2022-08-26T04:18:04.556Z,98675.63
2022-08-26T04:20:32.048Z,98668.44
2022-08-26T04:22:59.587Z,98675.63
2022-08-26T04:25:26.650Z,98682.03
2022-08-26T04:27:54.227Z,98682.44
2022-08-26T04:30:22.152Z,98689.63
2022-08-26T04:32:49.945Z,98688.41
2022-08-26T04:35:25.691Z,98689.63
2022-08-26T04:37:53.835Z,98680.03
2022-08-26T04:40:21.317Z,98680.00
2022-08-26T04:42:49.436Z,98677.56
2022-08-26T04:45:16.797Z,98673.56
2022-08-26T04:47:45.171Z,98673.16
2022-08-26T04:50:12.828Z,98685.91
2022-08-26T04:52:40.480Z,98689.06
2022-08-26T04:55:08.800Z,98685.81
2022-08-26T04:57:37.246Z,98678.59
2022-08-26T05:00:12.745Z,98633.50
2022-08-26T05:02:41.239Z,98682.53
2022-08-26T05:05:10.647Z,98673.66
2022-08-26T05:07:38.222Z,98676.03
2022-08-26T05:10:08.782Z,98689.16
2022-08-26T05:12:37.943Z,98684.72
2022-08-26T05:15:06.063Z,98683.09
2022-08-26T05:17:33.675Z,98681.50
2022-08-26T05:20:01.009Z,98687.03
2022-08-26T05:22:31.066Z,98686.13
2022-08-26T05:24:58.242Z,98684.91
2022-08-26T05:27:25.622Z,98687.69
2022-08-26T05:29:57.362Z,98682.50
2022-08-26T05:32:24.579Z,98682.91
2022-08-26T05:34:57.125Z,98676.94
2022-08-26T05:37:26.119Z,98708.81
2022-08-26T05:39:54.241Z,98707.19
2022-08-26T05:42:22.039Z,98711.56
2022-08-26T05:44:54.088Z,98707.53
2022-08-26T05:47:24.634Z,98715.09
2022-08-26T05:49:52.821Z,98720.28
2022-08-26T05:52:20.595Z,98725.06
2022-08-26T05:54:48.119Z,98717.41
2022-08-26T05:57:16.124Z,98728.22
2022-08-26T05:59:46.044Z,98722.19
2022-08-26T06:02:13.386Z,98719.25
2022-08-26T06:04:40.994Z,98713.13
2022-08-26T06:07:11.640Z,98713.88
2022-08-26T06:09:41.556Z,98717.13
2022-08-26T06:12:09.208Z,98734.31
2022-08-26T06:14:36.532Z,98733.44
2022-08-26T06:17:04.503Z,98729.31
2022-08-26T06:19:33.110Z,98717.69
2022-08-26T06:22:23.303Z,98721.97
2022-08-26T06:25:09.918Z,98721.03
2022-08-26T06:27:38.252Z,98725.16
2022-08-26T06:30:06.656Z,98712.16
2022-08-26T06:32:34.602Z,98720.56
2022-08-26T06:35:02.678Z,98741.31
2022-08-26T06:37:30.918Z,98748.38
2022-08-26T06:40:00.765Z,98733.03
2022-08-26T06:42:28.009Z,98730.16
2022-08-26T06:44:57.630Z,98743.00
2022-08-26T06:47:26.241Z,98737.78
2022-08-26T06:49:53.603Z,98722.50
2022-08-26T06:52:24.554Z,98720.94
2022-08-26T06:54:52.334Z,98710.47
2022-08-26T06:57:20.585Z,98713.56
2022-08-26T06:59:48.743Z,98715.97
2022-08-26T07:02:18.667Z,98729.44
2022-08-26T07:04:47.901Z,98734.06
2022-08-26T07:07:16.270Z,98748.44
2022-08-26T07:09:43.475Z,98729.84
2022-08-26T07:12:10.826Z,98732.78
2022-08-26T07:14:38.567Z,98740.72
2022-08-26T07:17:09.193Z,98738.06
2022-08-26T07:19:39.786Z,98740.88
2022-08-26T07:22:07.349Z,98741.97
2022-08-26T07:24:39.066Z,98739.38
2022-08-26T07:27:09.781Z,98742.19
2022-08-26T07:29:39.288Z,98750.41
2022-08-26T07:32:07.820Z,98761.63
2022-08-26T07:34:36.783Z,98741.59
2022-08-26T07:37:05.960Z,98749.25
2022-08-26T07:39:36.651Z,98747.31
2022-08-26T07:42:07.887Z,98740.97
2022-08-26T07:44:36.911Z,98734.59
2022-08-26T07:47:10.126Z,98734.72
2022-08-26T07:49:44.418Z,98731.72
2022-08-26T07:52:12.490Z,98726.59
2022-08-26T07:54:40.795Z,98732.31
2022-08-26T07:57:09.422Z,98738.81
2022-08-26T07:59:37.748Z,98740.88
2022-08-26T08:02:05.226Z,98744.84
2022-08-26T08:04:33.151Z,98738.84
2022-08-26T08:07:00.525Z,98751.91
2022-08-26T08:09:28.781Z,98751.69
2022-08-26T08:11:56.204Z,98744.69
2022-08-26T08:14:23.709Z,98741.03
2022-08-26T08:16:54.518Z,98755.31
2022-08-26T08:19:23.924Z,98740.91
2022-08-26T08:22:17.111Z,98718.69
2022-08-26T08:24:45.347Z,98730.19
2022-08-26T08:27:23.502Z,98742.28
2022-08-26T08:29:55.031Z,98743.09
2022-08-26T08:32:23.542Z,98733.66
2022-08-26T08:34:50.742Z,98740.84
2022-08-26T08:37:18.073Z,98732.25
2022-08-26T08:39:45.734Z,98726.25
2022-08-26T08:42:31.772Z,98719.78
2022-08-26T08:45:08.118Z,98707.66
2022-08-26T08:47:48.064Z,98729.16
2022-08-26T08:50:28.745Z,98730.66
2022-08-26T08:53:20.513Z,98720.88
2022-08-26T08:56:02.710Z,98726.19
2022-08-26T08:58:53.681Z,98732.91
2022-08-26T09:01:33.504Z,98732.03
2022-08-26T09:04:34.410Z,98734.13
2022-08-26T09:07:04.561Z,98725.91
2022-08-26T09:09:40.620Z,98710.91
2022-08-26T09:12:17.021Z,98699.63
2022-08-26T09:14:47.470Z,98706.94
2022-08-26T09:17:31.551Z,98710.78
2022-08-26T09:20:10.858Z,98717.41
2022-08-26T09:22:44.165Z,98706.03
2022-08-26T09:25:14.454Z,98713.44
2022-08-26T09:27:51.204Z,98708.66
2022-08-26T09:30:29.646Z,98709.34
2022-08-26T09:33:03.971Z,98706.00
2022-08-26T09:35:41.055Z,98697.84
2022-08-26T09:38:26.663Z,98700.56
2022-08-26T09:41:02.094Z,98702.34
2022-08-26T09:43:30.093Z,98694.91
2022-08-26T09:46:27.604Z,98698.69
2022-08-26T09:48:54.932Z,98692.84
2022-08-26T09:51:32.238Z,98693.63
2022-08-26T09:54:02.359Z,98696.06
2022-08-26T09:56:39.455Z,98702.78
2022-08-26T09:59:11.194Z,98690.34
2022-08-26T10:01:44.954Z,98704.41
2022-08-26T10:04:21.966Z,98708.34
2022-08-26T10:06:56.357Z,98703.41
2022-08-26T10:09:26.545Z,98704.41
2022-08-26T10:12:10.570Z,98699.69
2022-08-26T10:17:22.832Z,98682.28
2022-08-26T10:20:16.798Z,98694.72
2022-08-26T10:23:00.797Z,98691.41
2022-08-26T10:25:49.003Z,98683.66
2022-08-26T10:28:21.023Z,98693.38
2022-08-26T10:31:00.942Z,98685.41
2022-08-26T10:33:28.720Z,98685.53
2022-08-26T10:36:02.018Z,98687.03
2022-08-26T10:38:34.779Z,98674.66
2022-08-26T10:41:13.380Z,98676.75
2022-08-26T10:43:57.117Z,98668.94
2022-08-26T10:46:37.374Z,98673.44
2022-08-26T10:49:15.488Z,98672.13
2022-08-26T10:52:16.373Z,98668.63
2022-08-26T10:54:59.796Z,98665.47
2022-08-26T10:57:55.996Z,98671.13
2022-08-26T11:01:10.117Z,98674.56
2022-08-26T11:03:50.838Z,98674.09
2022-08-26T11:06:31.565Z,98667.97
2022-08-26T11:09:06.250Z,98661.75
2022-08-26T11:11:40.203Z,98667.25
2022-08-26T11:14:29.012Z,98665.84
2022-08-26T11:16:58.971Z,98654.91
2022-08-26T11:20:00.688Z,98664.72
2022-08-26T11:22:47.851Z,98649.38
2022-08-26T11:25:21.014Z,98656.22
2022-08-26T11:27:48.173Z,98673.31
2022-08-26T11:30:18.553Z,98656.34
2022-08-26T11:32:53.353Z,98652.59
2022-08-26T11:35:20.751Z,98665.97
2022-08-26T11:37:48.561Z,98657.00
2022-08-26T11:40:19.503Z,98665.41
2022-08-26T11:42:50.770Z,98661.00
2022-08-26T11:45:31.296Z,98661.69
2022-08-26T11:47:59.006Z,98655.34
2022-08-26T11:50:29.018Z,98666.69
2022-08-26T11:53:06.248Z,98662.59
2022-08-26T11:55:41.935Z,98663.38
2022-08-26T11:58:12.975Z,98669.06
2022-08-26T12:00:46.283Z,98656.00
2022-08-26T12:03:20.813Z,98645.13
2022-08-26T12:05:52.440Z,98646.81
2022-08-26T12:08:27.790Z,98648.06
2022-08-26T12:11:09.713Z,98642.13
2022-08-26T12:13:39.393Z,98647.06
2022-08-26T12:16:07.577Z,98633.69
2022-08-26T12:18:39.618Z,98635.31
2022-08-26T12:21:20.340Z,98631.03
2022-08-26T12:23:52.726Z,98634.84
2022-08-26T12:26:23.308Z,98630.56
2022-08-26T12:29:12.665Z,98631.44
2022-08-26T12:31:48.578Z,98619.03
2022-08-26T12:34:18.547Z,98621.41
2022-08-26T12:36:50.436Z,98630.97
2022-08-26T12:39:28.951Z,98618.56
2022-08-26T12:42:01.627Z,98611.97
2022-08-26T12:44:53.882Z,98619.41
2022-08-26T12:47:32.717Z,98619.28
2022-08-26T12:50:26.443Z,98610.06
2022-08-26T12:53:33.257Z,98603.59
2022-08-26T12:56:04.671Z,98619.13
2022-08-26T12:58:35.008Z,98609.38
2022-08-26T13:01:05.298Z,98615.69
2022-08-26T13:03:37.222Z,98616.47
2022-08-26T13:06:22.718Z,98618.72
2022-08-26T13:09:11.500Z,98604.34
2022-08-26T13:11:45.190Z,98615.41
2022-08-26T13:14:23.759Z,98597.72
2022-08-26T13:16:52.438Z,98604.38
2022-08-26T13:19:29.676Z,98596.66
2022-08-26T13:21:59.214Z,98599.78
2022-08-26T13:24:31.736Z,98603.59
2022-08-26T13:26:59.777Z,98598.38
2022-08-26T13:29:27.539Z,98592.56
2022-08-26T13:31:56.375Z,98593.19
2022-08-26T13:34:25.430Z,98592.38
2022-08-26T13:36:54.701Z,98589.16
2022-08-26T13:39:23.076Z,98586.63
2022-08-26T13:41:50.747Z,98587.59
2022-08-26T13:44:18.442Z,98577.81
2022-08-26T13:49:18.303Z,98568.97
2022-08-26T13:51:46.206Z,98574.66
2022-08-26T13:54:13.302Z,98583.50
2022-08-26T13:56:40.739Z,98574.94
2022-08-26T13:59:07.983Z,98570.31
2022-08-26T14:01:36.150Z,98556.91
2022-08-26T14:04:03.891Z,98566.19
2022-08-26T14:06:31.344Z,98567.25
2022-08-26T14:08:58.966Z,98567.22
2022-08-26T14:11:27.168Z,98561.38
2022-08-26T14:13:54.374Z,98570.47
2022-08-26T14:16:29.318Z,98563.94
2022-08-26T14:18:56.645Z,98556.34
2022-08-26T14:21:25.190Z,98563.59
2022-08-26T14:23:52.692Z,98554.91
2022-08-26T14:26:28.783Z,98554.13
2022-08-26T14:29:00.334Z,98558.81
2022-08-26T14:31:29.492Z,98564.56
2022-08-26T14:34:03.639Z,98571.97
2022-08-26T14:36:32.584Z,98560.16
2022-08-26T14:39:04.438Z,98562.03
2022-08-26T14:41:33.427Z,98552.06
2022-08-26T14:44:05.050Z,98546.81
2022-08-26T14:46:37.906Z,98556.09
2022-08-26T14:49:09.848Z,98549.44
2022-08-26T14:51:39.030Z,98539.25
2022-08-26T14:54:12.587Z,98548.88
2022-08-26T14:56:46.488Z,98551.31
2022-08-26T14:59:17.747Z,98549.19
2022-08-26T15:01:45.854Z,98558.31
2022-08-26T15:04:13.930Z,98558.97
2022-08-26T15:06:41.111Z,98562.38
2022-08-26T15:09:08.533Z,98551.13
2022-08-26T15:11:36.119Z,98563.69
2022-08-26T15:14:03.339Z,98559.03
2022-08-26T15:16:31.143Z,98560.06
2022-08-26T15:19:01.207Z,98552.16
2022-08-26T15:21:28.623Z,98552.63
2022-08-26T15:23:55.659Z,98553.97
2022-08-26T15:26:23.849Z,98547.97
2022-08-26T15:28:51.768Z,98554.88
2022-08-26T15:31:19.399Z,98570.41
2022-08-26T15:33:47.285Z,98556.03
2022-08-26T15:36:14.482Z,98559.78
2022-08-26T15:38:42.597Z,98556.03
2022-08-26T15:41:10.411Z,98561.34
2022-08-26T15:43:38.736Z,98552.66
2022-08-26T15:46:10.952Z,98548.47
2022-08-26T15:48:38.801Z,98548.78
2022-08-26T15:51:07.459Z,98550.94
2022-08-26T15:53:35.724Z,98548.69
2022-08-26T15:56:03.299Z,98555.69
2022-08-26T15:58:30.527Z,98552.63
2022-08-26T16:00:58.522Z,98553.09
2022-08-26T16:03:25.604Z,98543.91
2022-08-26T16:05:53.583Z,98548.00
2022-08-26T16:08:21.329Z,98544.94
2022-08-26T16:10:50.849Z,98551.47
2022-08-26T16:13:19.958Z,98553.97
2022-08-26T16:15:48.437Z,98551.34
2022-08-26T16:18:16.373Z,98551.69
2022-08-26T16:20:50.140Z,98548.63
2022-08-26T16:23:32.175Z,98564.00
2022-08-26T16:25:59.523Z,98549.63
2022-08-26T16:28:26.974Z,98549.63
2022-08-26T16:30:54.439Z,98549.63
2022-08-26T16:33:29.244Z,98552.13
2022-08-26T16:35:56.940Z,98554.25
2022-08-26T16:38:24.567Z,98555.91
2022-08-26T16:40:51.693Z,98560.78
2022-08-26T16:43:18.858Z,98557.94
2022-08-26T16:45:46.008Z,98568.47
2022-08-26T16:48:13.605Z,98560.44
2022-08-26T16:50:42.496Z,98564.25
2022-08-26T16:55:37.363Z,98581.78
2022-08-26T16:58:04.732Z,98584.25
2022-08-26T17:00:33.151Z,98583.66
2022-08-26T17:03:01.581Z,98567.09
2022-08-26T17:05:29.737Z,98584.41
2022-08-26T17:07:59.873Z,98578.16
2022-08-26T17:10:28.248Z,98592.72
2022-08-26T17:12:56.891Z,98575.78
2022-08-26T17:15:24.114Z,98586.91
2022-08-26T17:17:52.495Z,98587.88
2022-08-26T17:20:21.511Z,98592.78
2022-08-26T17:22:59.492Z,98596.50
2022-08-26T17:25:32.227Z,98600.91
2022-08-26T17:28:03.338Z,98608.31
2022-08-26T17:30:31.993Z,98606.91
2022-08-26T17:32:59.945Z,98615.16
2022-08-26T17:35:27.283Z,98599.97
2022-08-26T17:37:56.263Z,98612.94
2022-08-26T17:40:29.793Z,98611.34
2022-08-26T17:42:58.849Z,98611.78
2022-08-26T17:45:26.886Z,98615.41
2022-08-26T17:47:57.047Z,98610.66
2022-08-26T17:50:25.733Z,98606.69
2022-08-26T17:52:52.948Z,98610.91
2022-08-26T17:55:20.568Z,98610.19
2022-08-26T17:57:53.545Z,98609.41
2022-08-26T18:00:27.679Z,98599.88
2022-08-26T18:02:55.586Z,98607.97
2022-08-26T18:05:23.481Z,98616.44
2022-08-26T18:07:51.839Z,98609.25
2022-08-26T18:10:21.783Z,98612.59
2022-08-26T18:12:49.188Z,98607.75
2022-08-26T18:15:17.409Z,98612.31
2022-08-26T18:17:45.232Z,98621.50
2022-08-26T18:20:16.715Z,98612.25
2022-08-26T18:22:44.973Z,98631.03
2022-08-26T18:25:14.362Z,98619.81
2022-08-26T18:27:45.068Z,98624.31
2022-08-26T18:30:23.507Z,98626.78
2022-08-26T18:32:53.259Z,98618.81
2022-08-26T18:35:22.334Z,98628.94
2022-08-26T18:37:49.817Z,98628.59
2022-08-26T18:40:17.909Z,98613.78
2022-08-26T18:42:45.768Z,98595.41
2022-08-26T18:45:17.747Z,98616.75
2022-08-26T18:47:48.424Z,98618.44
2022-08-26T18:50:15.859Z,98621.28
2022-08-26T18:52:44.946Z,98620.84
2022-08-26T18:55:15.568Z,98621.34
2022-08-26T18:57:43.659Z,98622.16
2022-08-26T19:00:11.638Z,98620.63
2022-08-26T19:02:39.529Z,98637.91
2022-08-26T19:05:07.237Z,98636.38
2022-08-26T19:07:39.633Z,98638.19
2022-08-26T19:10:07.580Z,98636.03
2022-08-26T19:12:36.599Z,98629.25
2022-08-26T19:15:04.471Z,98621.81
2022-08-26T19:17:31.837Z,98625.00
2022-08-26T19:19:58.908Z,98635.34
2022-08-26T19:22:27.345Z,98625.53
2022-08-26T19:24:54.549Z,98624.69
2022-08-26T19:27:21.688Z,98620.34
2022-08-26T19:29:49.046Z,98618.13
2022-08-26T19:32:17.728Z,98624.41
2022-08-26T19:34:45.037Z,98628.88
2022-08-26T19:37:12.284Z,98628.16
2022-08-26T19:39:39.795Z,98622.38
2022-08-26T19:42:09.077Z,98631.63
2022-08-26T19:44:56.158Z,98630.84
2022-08-26T19:47:23.977Z,98632.13
2022-08-26T19:49:56.005Z,98636.59
2022-08-26T19:52:29.853Z,98637.09
2022-08-26T19:55:00.244Z,98629.06
2022-08-26T19:57:27.707Z,98633.03
2022-08-26T19:59:54.843Z,98635.50
2022-08-26T20:02:22.183Z,98632.19
2022-08-26T20:04:49.438Z,98622.63
2022-08-26T20:07:18.836Z,98618.78
2022-08-26T20:09:47.847Z,98637.19
2022-08-26T20:12:16.355Z,98641.97
2022-08-26T20:14:44.266Z,98627.59
2022-08-26T20:17:11.790Z,98633.22
2022-08-26T20:19:57.460Z,98630.84
2022-08-26T20:22:25.601Z,98618.81
2022-08-26T20:24:52.896Z,98634.09
2022-08-26T20:27:22.309Z,98623.34
2022-08-26T20:29:49.858Z,98635.41
2022-08-26T20:32:18.787Z,98629.41
2022-08-26T20:34:46.190Z,98631.78
2022-08-26T20:37:13.397Z,98640.28
2022-08-26T20:39:41.427Z,98636.78
2022-08-26T20:42:19.809Z,98645.59
2022-08-26T20:44:54.898Z,98642.47
2022-08-26T20:47:23.242Z,98653.78
2022-08-26T20:49:52.572Z,98637.81
2022-08-26T20:52:20.051Z,98644.66
2022-08-26T20:54:47.258Z,98654.63
2022-08-26T20:57:14.828Z,98639.72
2022-08-26T20:59:43.162Z,98640.09
2022-08-26T21:02:10.388Z,98650.31
2022-08-26T21:04:38.008Z,98656.06
2022-08-26T21:07:05.299Z,98643.38
2022-08-26T21:09:33.262Z,98647.06
2022-08-26T21:12:00.668Z,98652.63
2022-08-26T21:14:28.770Z,98652.13
2022-08-26T21:16:57.262Z,98658.13
2022-08-26T21:19:24.743Z,98646.94
2022-08-26T21:21:52.446Z,98647.53
2022-08-26T21:24:21.739Z,98656.09
2022-08-26T21:26:49.690Z,98631.06
2022-08-26T21:29:16.979Z,98644.69
2022-08-26T21:31:46.783Z,98642.78
2022-08-26T21:34:17.571Z,98648.84
2022-08-26T21:36:48.610Z,98642.53
2022-08-26T21:39:16.831Z,98633.66
2022-08-26T21:41:45.733Z,98641.69
2022-08-26T21:44:14.975Z,98642.84
2022-08-26T21:46:43.895Z,98643.66
2022-08-26T21:49:16.252Z,98646.06
2022-08-26T21:51:47.393Z,98635.72
2022-08-26T21:54:16.273Z,98646.50
2022-08-26T21:56:46.920Z,98623.41
2022-08-26T21:59:17.000Z,98632.59
2022-08-26T22:01:44.339Z,98634.97
2022-08-26T22:04:11.752Z,98639.44
2022-08-26T22:06:45.387Z,98639.44
2022-08-26T22:09:14.446Z,98638.22
2022-08-26T22:11:41.974Z,98623.47
2022-08-26T22:14:10.211Z,98643.38
2022-08-26T22:16:37.884Z,98637.38
2022-08-26T22:19:05.584Z,98631.38
2022-08-26T22:21:35.402Z,98638.22
2022-08-26T22:24:04.145Z,98638.63
2022-08-26T22:26:33.065Z,98637.84
2022-08-26T22:29:01.319Z,98638.63
2022-08-26T22:31:37.918Z,98633.53
2022-08-26T22:34:10.284Z,98648.69
2022-08-26T22:36:43.682Z,98639.38
2022-08-26T22:39:14.350Z,98636.56
2022-08-26T22:41:43.499Z,98636.28
2022-08-26T22:44:12.057Z,98630.69
2022-08-26T22:46:40.771Z,98628.66
2022-08-26T22:49:10.089Z,98605.47
2022-08-26T22:51:37.574Z,98631.56
2022-08-26T22:54:06.228Z,98631.56
2022-08-26T22:56:34.136Z,98630.63
2022-08-26T22:59:01.382Z,98629.41
2022-08-26T23:01:29.512Z,98626.22
2022-08-26T23:03:58.159Z,98626.41
2022-08-26T23:06:25.531Z,98645.31
2022-08-26T23:08:53.249Z,98633.75
2022-08-26T23:11:20.684Z,98639.78
2022-08-26T23:13:48.149Z,98649.47
2022-08-26T23:16:16.074Z,98641.13
2022-08-26T23:18:44.354Z,98637.97
2022-08-26T23:21:16.533Z,98635.97
2022-08-26T23:23:45.486Z,98638.34
2022-08-26T23:26:17.416Z,98647.19
2022-08-26T23:28:45.305Z,98649.25
2022-08-26T23:31:14.418Z,98644.88
2022-08-26T23:34:00.310Z,98637.31
2022-08-26T23:36:28.668Z,98637.34
2022-08-26T23:38:58.207Z,98641.78
2022-08-26T23:41:25.395Z,98636.13
2022-08-26T23:43:53.227Z,98632.53
2022-08-26T23:46:20.764Z,98636.56
2022-08-26T23:48:48.861Z,98638.59
2022-08-26T23:51:34.714Z,98630.19
2022-08-26T23:54:02.411Z,98634.63
2022-08-26T23:56:29.579Z,98626.69
2022-08-26T23:58:57.172Z,98643.47
